sensor_id;sensor_type;location;lat;lon;timestamp;P1;durP1;ratioP1;P2;durP2;ratioP2
13979;SDS011;73871;49.900;8.594;2024-03-08T00:02:07;18.73;;;14.70;;
13979;SDS011;73871;49.900;8.594;2024-03-08T00:04:33;19.17;;;14.87;;
13979;SDS011;73871;49.900;8.594;2024-03-08T00:07:00;18.33;;;15.03;;
13979;SDS011;73871;49.900;8.594;2024-03-08T00:09:27;18.83;;;15.57;;
13979;SDS011;73871;49.900;8.594;2024-03-08T00:11:53;19.33;;;15.57;;
13979;SDS011;73871;49.900;8.594;2024-03-08T00:14:20;19.60;;;14.70;;
13979;SDS011;73871;49.900;8.594;2024-03-08T00:16:48;18.73;;;14.53;;
13979;SDS011;73871;49.900;8.594;2024-03-08T00:19:14;18.63;;;15.03;;
13979;SDS011;73871;49.900;8.594;2024-03-08T00:21:41;19.57;;;14.93;;
13979;SDS011;73871;49.900;8.594;2024-03-08T00:24:08;20.20;;;15.43;;
13979;SDS011;73871;49.900;8.594;2024-03-08T00:26:35;19.50;;;15.67;;
13979;SDS011;73871;49.900;8.594;2024-03-08T00:29:02;16.53;;;14.63;;
13979;SDS011;73871;49.900;8.594;2024-03-08T00:31:29;17.63;;;15.43;;
13979;SDS011;73871;49.900;8.594;2024-03-08T00:33:58;19.53;;;15.23;;
13979;SDS011;73871;49.900;8.594;2024-03-08T00:36:24;18.37;;;15.23;;
13979;SDS011;73871;49.900;8.594;2024-03-08T00:38:51;17.53;;;14.13;;
13979;SDS011;73871;49.900;8.594;2024-03-08T00:41:18;18.87;;;15.33;;
13979;SDS011;73871;49.900;8.594;2024-03-08T00:43:45;19.53;;;14.97;;
13979;SDS011;73871;49.900;8.594;2024-03-08T00:46:13;20.00;;;15.33;;
13979;SDS011;73871;49.900;8.594;2024-03-08T00:48:41;19.10;;;15.10;;
13979;SDS011;73871;49.900;8.594;2024-03-08T00:51:09;22.23;;;16.33;;
13979;SDS011;73871;49.900;8.594;2024-03-08T00:53:36;18.07;;;15.10;;
13979;SDS011;73871;49.900;8.594;2024-03-08T00:56:03;21.17;;;15.00;;
13979;SDS011;73871;49.900;8.594;2024-03-08T00:58:30;20.30;;;16.17;;
13979;SDS011;73871;49.900;8.594;2024-03-08T01:00:57;21.50;;;15.93;;
13979;SDS011;73871;49.900;8.594;2024-03-08T01:03:25;19.97;;;15.63;;
13979;SDS011;73871;49.900;8.594;2024-03-08T01:05:52;20.40;;;16.17;;
13979;SDS011;73871;49.900;8.594;2024-03-08T01:08:19;21.90;;;15.80;;
13979;SDS011;73871;49.900;8.594;2024-03-08T01:10:46;21.87;;;15.60;;
13979;SDS011;73871;49.900;8.594;2024-03-08T01:13:13;22.13;;;15.37;;
13979;SDS011;73871;49.900;8.594;2024-03-08T01:15:40;18.20;;;15.13;;
13979;SDS011;73871;49.900;8.594;2024-03-08T01:18:08;22.07;;;15.00;;
13979;SDS011;73871;49.900;8.594;2024-03-08T01:20:35;21.03;;;16.10;;
13979;SDS011;73871;49.900;8.594;2024-03-08T01:23:02;19.60;;;15.70;;
13979;SDS011;73871;49.900;8.594;2024-03-08T01:25:33;20.93;;;15.80;;
13979;SDS011;73871;49.900;8.594;2024-03-08T01:28:00;21.40;;;15.57;;
13979;SDS011;73871;49.900;8.594;2024-03-08T01:30:28;21.47;;;16.53;;
13979;SDS011;73871;49.900;8.594;2024-03-08T01:32:55;19.57;;;15.43;;
13979;SDS011;73871;49.900;8.594;2024-03-08T01:35:21;19.90;;;15.27;;
13979;SDS011;73871;49.900;8.594;2024-03-08T01:37:48;20.10;;;15.67;;
13979;SDS011;73871;49.900;8.594;2024-03-08T01:40:17;20.83;;;15.73;;
13979;SDS011;73871;49.900;8.594;2024-03-08T01:42:44;20.33;;;15.83;;
13979;SDS011;73871;49.900;8.594;2024-03-08T01:45:11;23.03;;;15.93;;
13979;SDS011;73871;49.900;8.594;2024-03-08T01:47:39;22.40;;;15.93;;
13979;SDS011;73871;49.900;8.594;2024-03-08T01:50:06;20.60;;;15.53;;
13979;SDS011;73871;49.900;8.594;2024-03-08T01:52:34;23.40;;;16.50;;
13979;SDS011;73871;49.900;8.594;2024-03-08T01:55:02;23.33;;;15.97;;
13979;SDS011;73871;49.900;8.594;2024-03-08T01:57:33;20.87;;;15.87;;
13979;SDS011;73871;49.900;8.594;2024-03-08T02:00:01;20.27;;;15.73;;
13979;SDS011;73871;49.900;8.594;2024-03-08T02:02:32;20.97;;;16.23;;
13979;SDS011;73871;49.900;8.594;2024-03-08T02:05:00;22.43;;;17.13;;
13979;SDS011;73871;49.900;8.594;2024-03-08T02:07:27;22.67;;;16.17;;
13979;SDS011;73871;49.900;8.594;2024-03-08T02:09:54;19.97;;;15.47;;
13979;SDS011;73871;49.900;8.594;2024-03-08T02:12:21;23.47;;;16.20;;
13979;SDS011;73871;49.900;8.594;2024-03-08T02:14:48;22.03;;;16.83;;
13979;SDS011;73871;49.900;8.594;2024-03-08T02:17:15;22.33;;;16.47;;
13979;SDS011;73871;49.900;8.594;2024-03-08T02:19:41;23.03;;;17.20;;
13979;SDS011;73871;49.900;8.594;2024-03-08T02:22:08;23.87;;;16.93;;
13979;SDS011;73871;49.900;8.594;2024-03-08T02:24:35;22.33;;;16.47;;
13979;SDS011;73871;49.900;8.594;2024-03-08T02:27:02;21.17;;;16.33;;
13979;SDS011;73871;49.900;8.594;2024-03-08T02:29:29;20.60;;;16.30;;
13979;SDS011;73871;49.900;8.594;2024-03-08T02:31:58;24.40;;;17.47;;
13979;SDS011;73871;49.900;8.594;2024-03-08T02:34:24;22.37;;;17.17;;
13979;SDS011;73871;49.900;8.594;2024-03-08T02:36:51;22.87;;;16.87;;
13979;SDS011;73871;49.900;8.594;2024-03-08T02:39:18;21.60;;;17.03;;
13979;SDS011;73871;49.900;8.594;2024-03-08T02:41:46;21.90;;;16.50;;
13979;SDS011;73871;49.900;8.594;2024-03-08T02:44:13;22.77;;;17.27;;
13979;SDS011;73871;49.900;8.594;2024-03-08T02:46:41;24.70;;;17.57;;
13979;SDS011;73871;49.900;8.594;2024-03-08T02:49:07;23.60;;;16.33;;
13979;SDS011;73871;49.900;8.594;2024-03-08T02:51:34;22.00;;;17.27;;
13979;SDS011;73871;49.900;8.594;2024-03-08T02:54:02;23.13;;;17.03;;
13979;SDS011;73871;49.900;8.594;2024-03-08T02:56:30;21.10;;;16.37;;
13979;SDS011;73871;49.900;8.594;2024-03-08T02:59:01;22.87;;;17.07;;
13979;SDS011;73871;49.900;8.594;2024-03-08T03:01:29;23.87;;;16.90;;
13979;SDS011;73871;49.900;8.594;2024-03-08T03:03:56;24.77;;;16.83;;
13979;SDS011;73871;49.900;8.594;2024-03-08T03:06:22;24.30;;;17.17;;
13979;SDS011;73871;49.900;8.594;2024-03-08T03:08:49;23.53;;;16.67;;
13979;SDS011;73871;49.900;8.594;2024-03-08T03:11:17;23.23;;;16.63;;
13979;SDS011;73871;49.900;8.594;2024-03-08T03:13:44;24.43;;;16.50;;
13979;SDS011;73871;49.900;8.594;2024-03-08T03:16:18;23.73;;;16.27;;
13979;SDS011;73871;49.900;8.594;2024-03-08T03:18:48;23.90;;;17.93;;
13979;SDS011;73871;49.900;8.594;2024-03-08T03:21:15;23.87;;;17.30;;
13979;SDS011;73871;49.900;8.594;2024-03-08T03:23:43;25.03;;;18.00;;
13979;SDS011;73871;49.900;8.594;2024-03-08T03:26:10;22.63;;;17.10;;
13979;SDS011;73871;49.900;8.594;2024-03-08T03:28:39;22.80;;;17.43;;
13979;SDS011;73871;49.900;8.594;2024-03-08T03:31:06;24.87;;;16.50;;
13979;SDS011;73871;49.900;8.594;2024-03-08T03:33:36;27.37;;;18.43;;
13979;SDS011;73871;49.900;8.594;2024-03-08T03:36:03;26.27;;;18.37;;
13979;SDS011;73871;49.900;8.594;2024-03-08T03:38:31;24.40;;;16.47;;
13979;SDS011;73871;49.900;8.594;2024-03-08T03:40:58;22.73;;;17.20;;
13979;SDS011;73871;49.900;8.594;2024-03-08T03:43:32;22.53;;;16.40;;
13979;SDS011;73871;49.900;8.594;2024-03-08T03:45:59;24.23;;;18.27;;
13979;SDS011;73871;49.900;8.594;2024-03-08T03:48:26;21.63;;;17.17;;
13979;SDS011;73871;49.900;8.594;2024-03-08T03:50:53;25.03;;;17.90;;
13979;SDS011;73871;49.900;8.594;2024-03-08T03:53:20;25.73;;;17.20;;
13979;SDS011;73871;49.900;8.594;2024-03-08T03:55:47;23.63;;;17.57;;
13979;SDS011;73871;49.900;8.594;2024-03-08T03:58:13;23.60;;;17.30;;
13979;SDS011;73871;49.900;8.594;2024-03-08T04:00:40;24.17;;;17.40;;
13979;SDS011;73871;49.900;8.594;2024-03-08T04:03:07;23.30;;;16.60;;
13979;SDS011;73871;49.900;8.594;2024-03-08T04:05:35;21.33;;;16.57;;
13979;SDS011;73871;49.900;8.594;2024-03-08T04:08:02;23.97;;;17.60;;
13979;SDS011;73871;49.900;8.594;2024-03-08T04:10:29;23.37;;;17.47;;
13979;SDS011;73871;49.900;8.594;2024-03-08T04:12:56;24.80;;;16.33;;
13979;SDS011;73871;49.900;8.594;2024-03-08T04:15:23;24.37;;;18.03;;
13979;SDS011;73871;49.900;8.594;2024-03-08T04:17:50;22.90;;;16.53;;
13979;SDS011;73871;49.900;8.594;2024-03-08T04:20:17;23.20;;;17.30;;
13979;SDS011;73871;49.900;8.594;2024-03-08T04:22:44;25.30;;;17.07;;
13979;SDS011;73871;49.900;8.594;2024-03-08T04:25:15;24.47;;;17.73;;
13979;SDS011;73871;49.900;8.594;2024-03-08T04:27:42;23.57;;;17.80;;
13979;SDS011;73871;49.900;8.594;2024-03-08T04:30:09;25.87;;;18.73;;
13979;SDS011;73871;49.900;8.594;2024-03-08T04:32:36;24.53;;;17.30;;
13979;SDS011;73871;49.900;8.594;2024-03-08T04:35:04;26.13;;;18.47;;
13979;SDS011;73871;49.900;8.594;2024-03-08T04:37:31;24.50;;;17.17;;
13979;SDS011;73871;49.900;8.594;2024-03-08T04:39:58;24.67;;;17.57;;
13979;SDS011;73871;49.900;8.594;2024-03-08T04:42:29;25.67;;;17.97;;
13979;SDS011;73871;49.900;8.594;2024-03-08T04:44:59;27.60;;;17.70;;
13979;SDS011;73871;49.900;8.594;2024-03-08T04:47:26;25.57;;;17.17;;
13979;SDS011;73871;49.900;8.594;2024-03-08T04:49:53;24.67;;;17.50;;
13979;SDS011;73871;49.900;8.594;2024-03-08T04:52:20;25.27;;;18.47;;
13979;SDS011;73871;49.900;8.594;2024-03-08T04:54:48;26.47;;;18.40;;
13979;SDS011;73871;49.900;8.594;2024-03-08T04:57:15;27.63;;;18.47;;
13979;SDS011;73871;49.900;8.594;2024-03-08T04:59:44;24.77;;;17.20;;
13979;SDS011;73871;49.900;8.594;2024-03-08T05:02:11;24.33;;;17.47;;
13979;SDS011;73871;49.900;8.594;2024-03-08T05:04:38;22.50;;;16.57;;
13979;SDS011;73871;49.900;8.594;2024-03-08T05:07:05;24.83;;;18.23;;
13979;SDS011;73871;49.900;8.594;2024-03-08T05:09:31;23.73;;;16.73;;
13979;SDS011;73871;49.900;8.594;2024-03-08T05:11:58;25.27;;;18.00;;
13979;SDS011;73871;49.900;8.594;2024-03-08T05:14:26;29.00;;;19.00;;
13979;SDS011;73871;49.900;8.594;2024-03-08T05:16:53;27.73;;;18.93;;
13979;SDS011;73871;49.900;8.594;2024-03-08T05:19:20;29.17;;;18.47;;
13979;SDS011;73871;49.900;8.594;2024-03-08T05:21:48;24.63;;;17.27;;
13979;SDS011;73871;49.900;8.594;2024-03-08T05:24:16;27.73;;;18.53;;
13979;SDS011;73871;49.900;8.594;2024-03-08T05:26:44;24.93;;;18.27;;
13979;SDS011;73871;49.900;8.594;2024-03-08T05:29:12;24.67;;;17.83;;
13979;SDS011;73871;49.900;8.594;2024-03-08T05:31:46;27.37;;;18.87;;
13979;SDS011;73871;49.900;8.594;2024-03-08T05:34:18;25.20;;;18.33;;
13979;SDS011;73871;49.900;8.594;2024-03-08T05:36:49;29.03;;;19.23;;
13979;SDS011;73871;49.900;8.594;2024-03-08T05:39:16;25.57;;;17.87;;
13979;SDS011;73871;49.900;8.594;2024-03-08T05:41:44;28.63;;;18.90;;
13979;SDS011;73871;49.900;8.594;2024-03-08T05:44:12;25.10;;;17.07;;
13979;SDS011;73871;49.900;8.594;2024-03-08T05:46:39;26.33;;;18.80;;
13979;SDS011;73871;49.900;8.594;2024-03-08T05:49:06;29.20;;;18.63;;
13979;SDS011;73871;49.900;8.594;2024-03-08T05:51:37;31.10;;;18.57;;
13979;SDS011;73871;49.900;8.594;2024-03-08T05:54:09;28.53;;;18.70;;
13979;SDS011;73871;49.900;8.594;2024-03-08T05:56:41;28.27;;;19.27;;
13979;SDS011;73871;49.900;8.594;2024-03-08T05:59:11;26.63;;;18.40;;
13979;SDS011;73871;49.900;8.594;2024-03-08T06:01:39;29.00;;;18.93;;
13979;SDS011;73871;49.900;8.594;2024-03-08T06:04:08;28.13;;;18.43;;
13979;SDS011;73871;49.900;8.594;2024-03-08T06:06:38;29.23;;;19.87;;
13979;SDS011;73871;49.900;8.594;2024-03-08T06:09:06;27.83;;;19.63;;
13979;SDS011;73871;49.900;8.594;2024-03-08T06:11:39;26.33;;;17.87;;
13979;SDS011;73871;49.900;8.594;2024-03-08T06:14:06;27.83;;;18.97;;
13979;SDS011;73871;49.900;8.594;2024-03-08T06:16:33;26.37;;;18.53;;
13979;SDS011;73871;49.900;8.594;2024-03-08T06:19:02;25.60;;;18.17;;
13979;SDS011;73871;49.900;8.594;2024-03-08T06:21:29;27.40;;;18.97;;
13979;SDS011;73871;49.900;8.594;2024-03-08T06:23:56;26.43;;;19.20;;
13979;SDS011;73871;49.900;8.594;2024-03-08T06:26:24;26.80;;;19.13;;
13979;SDS011;73871;49.900;8.594;2024-03-08T06:28:55;27.00;;;18.83;;
13979;SDS011;73871;49.900;8.594;2024-03-08T06:31:23;27.23;;;18.70;;
13979;SDS011;73871;49.900;8.594;2024-03-08T06:33:50;25.93;;;18.77;;
13979;SDS011;73871;49.900;8.594;2024-03-08T06:36:17;26.43;;;18.00;;
13979;SDS011;73871;49.900;8.594;2024-03-08T06:38:50;25.03;;;18.83;;
13979;SDS011;73871;49.900;8.594;2024-03-08T06:41:17;26.83;;;18.43;;
13979;SDS011;73871;49.900;8.594;2024-03-08T06:43:47;23.97;;;18.37;;
13979;SDS011;73871;49.900;8.594;2024-03-08T06:46:15;25.47;;;19.00;;
13979;SDS011;73871;49.900;8.594;2024-03-08T06:48:42;24.20;;;18.83;;
13979;SDS011;73871;49.900;8.594;2024-03-08T06:51:10;21.73;;;17.90;;
13979;SDS011;73871;49.900;8.594;2024-03-08T06:53:37;26.23;;;17.00;;
13979;SDS011;73871;49.900;8.594;2024-03-08T06:56:05;27.30;;;18.43;;
13979;SDS011;73871;49.900;8.594;2024-03-08T06:58:31;24.47;;;18.97;;
13979;SDS011;73871;49.900;8.594;2024-03-08T07:00:59;23.13;;;18.30;;
13979;SDS011;73871;49.900;8.594;2024-03-08T07:03:27;24.53;;;18.70;;
13979;SDS011;73871;49.900;8.594;2024-03-08T07:05:56;24.47;;;18.00;;
13979;SDS011;73871;49.900;8.594;2024-03-08T07:08:24;26.07;;;18.83;;
13979;SDS011;73871;49.900;8.594;2024-03-08T07:10:53;24.83;;;18.97;;
13979;SDS011;73871;49.900;8.594;2024-03-08T07:13:20;25.17;;;18.70;;
13979;SDS011;73871;49.900;8.594;2024-03-08T07:15:47;26.33;;;18.30;;
13979;SDS011;73871;49.900;8.594;2024-03-08T07:18:14;24.93;;;18.13;;
13979;SDS011;73871;49.900;8.594;2024-03-08T07:20:42;26.10;;;18.43;;
13979;SDS011;73871;49.900;8.594;2024-03-08T07:23:11;24.50;;;18.30;;
13979;SDS011;73871;49.900;8.594;2024-03-08T07:25:58;25.67;;;18.10;;
13979;SDS011;73871;49.900;8.594;2024-03-08T07:28:27;22.73;;;17.80;;
13979;SDS011;73871;49.900;8.594;2024-03-08T07:30:57;22.27;;;18.03;;
13979;SDS011;73871;49.900;8.594;2024-03-08T07:33:36;22.33;;;17.00;;
13979;SDS011;73871;49.900;8.594;2024-03-08T07:36:04;23.00;;;18.17;;
13979;SDS011;73871;49.900;8.594;2024-03-08T07:38:31;21.93;;;17.77;;
13979;SDS011;73871;49.900;8.594;2024-03-08T07:40:58;22.40;;;17.53;;
13979;SDS011;73871;49.900;8.594;2024-03-08T07:43:25;25.70;;;18.30;;
13979;SDS011;73871;49.900;8.594;2024-03-08T07:45:51;22.87;;;17.17;;
13979;SDS011;73871;49.900;8.594;2024-03-08T07:48:21;24.33;;;17.10;;
13979;SDS011;73871;49.900;8.594;2024-03-08T07:50:48;24.10;;;17.50;;
13979;SDS011;73871;49.900;8.594;2024-03-08T07:53:16;29.63;;;19.53;;
13979;SDS011;73871;49.900;8.594;2024-03-08T07:55:42;21.97;;;18.27;;
13979;SDS011;73871;49.900;8.594;2024-03-08T07:58:10;24.03;;;18.77;;
13979;SDS011;73871;49.900;8.594;2024-03-08T08:00:37;22.73;;;17.93;;
13979;SDS011;73871;49.900;8.594;2024-03-08T08:03:06;21.60;;;17.27;;
13979;SDS011;73871;49.900;8.594;2024-03-08T08:05:34;23.73;;;18.67;;
13979;SDS011;73871;49.900;8.594;2024-03-08T08:08:02;23.73;;;19.03;;
13979;SDS011;73871;49.900;8.594;2024-03-08T08:10:32;21.30;;;16.53;;
13979;SDS011;73871;49.900;8.594;2024-03-08T08:13:00;24.00;;;17.80;;
13979;SDS011;73871;49.900;8.594;2024-03-08T08:15:30;20.30;;;16.37;;
13979;SDS011;73871;49.900;8.594;2024-03-08T08:17:57;21.50;;;17.27;;
13979;SDS011;73871;49.900;8.594;2024-03-08T08:20:24;20.57;;;16.83;;
13979;SDS011;73871;49.900;8.594;2024-03-08T08:22:52;22.90;;;18.57;;
13979;SDS011;73871;49.900;8.594;2024-03-08T08:25:20;21.90;;;17.33;;
13979;SDS011;73871;49.900;8.594;2024-03-08T08:27:50;20.90;;;16.83;;
13979;SDS011;73871;49.900;8.594;2024-03-08T08:30:17;23.43;;;18.57;;
13979;SDS011;73871;49.900;8.594;2024-03-08T08:32:44;19.60;;;16.77;;
13979;SDS011;73871;49.900;8.594;2024-03-08T08:35:11;22.33;;;17.10;;
13979;SDS011;73871;49.900;8.594;2024-03-08T08:37:39;20.80;;;17.03;;
13979;SDS011;73871;49.900;8.594;2024-03-08T08:40:06;22.17;;;16.87;;
13979;SDS011;73871;49.900;8.594;2024-03-08T08:42:41;20.70;;;17.50;;
13979;SDS011;73871;49.900;8.594;2024-03-08T08:45:08;24.20;;;18.27;;
13979;SDS011;73871;49.900;8.594;2024-03-08T08:47:42;20.90;;;17.20;;
13979;SDS011;73871;49.900;8.594;2024-03-08T08:50:12;20.53;;;17.43;;
13979;SDS011;73871;49.900;8.594;2024-03-08T08:52:39;19.70;;;16.93;;
13979;SDS011;73871;49.900;8.594;2024-03-08T08:55:07;19.80;;;16.37;;
13979;SDS011;73871;49.900;8.594;2024-03-08T08:57:34;19.37;;;16.40;;
13979;SDS011;73871;49.900;8.594;2024-03-08T09:00:01;21.07;;;17.23;;
13979;SDS011;73871;49.900;8.594;2024-03-08T09:02:33;19.47;;;15.80;;
13979;SDS011;73871;49.900;8.594;2024-03-08T09:05:00;17.97;;;16.13;;
13979;SDS011;73871;49.900;8.594;2024-03-08T09:07:28;18.17;;;16.03;;
13979;SDS011;73871;49.900;8.594;2024-03-08T09:09:55;18.20;;;14.23;;
13979;SDS011;73871;49.900;8.594;2024-03-08T09:12:24;19.17;;;15.70;;
13979;SDS011;73871;49.900;8.594;2024-03-08T09:14:51;19.97;;;15.97;;
13979;SDS011;73871;49.900;8.594;2024-03-08T09:17:18;19.03;;;16.13;;
13979;SDS011;73871;49.900;8.594;2024-03-08T09:19:47;19.27;;;15.83;;
13979;SDS011;73871;49.900;8.594;2024-03-08T09:22:14;20.33;;;16.30;;
13979;SDS011;73871;49.900;8.594;2024-03-08T09:24:40;18.77;;;16.53;;
13979;SDS011;73871;49.900;8.594;2024-03-08T09:27:09;17.07;;;15.13;;
13979;SDS011;73871;49.900;8.594;2024-03-08T09:29:36;19.57;;;15.37;;
13979;SDS011;73871;49.900;8.594;2024-03-08T09:32:03;16.53;;;14.87;;
13979;SDS011;73871;49.900;8.594;2024-03-08T09:34:30;19.50;;;16.30;;
13979;SDS011;73871;49.900;8.594;2024-03-08T09:37:03;16.90;;;15.10;;
13979;SDS011;73871;49.900;8.594;2024-03-08T09:39:30;18.83;;;16.17;;
13979;SDS011;73871;49.900;8.594;2024-03-08T09:41:59;17.33;;;15.37;;
13979;SDS011;73871;49.900;8.594;2024-03-08T09:44:26;18.27;;;16.37;;
13979;SDS011;73871;49.900;8.594;2024-03-08T09:46:55;18.10;;;16.13;;
13979;SDS011;73871;49.900;8.594;2024-03-08T09:49:22;17.27;;;15.30;;
13979;SDS011;73871;49.900;8.594;2024-03-08T09:51:49;17.57;;;15.77;;
13979;SDS011;73871;49.900;8.594;2024-03-08T09:54:19;17.60;;;15.73;;
13979;SDS011;73871;49.900;8.594;2024-03-08T09:56:50;17.53;;;15.63;;
13979;SDS011;73871;49.900;8.594;2024-03-08T09:59:18;19.13;;;16.43;;
13979;SDS011;73871;49.900;8.594;2024-03-08T10:01:54;19.77;;;15.53;;
13979;SDS011;73871;49.900;8.594;2024-03-08T10:04:26;17.57;;;15.43;;
13979;SDS011;73871;49.900;8.594;2024-03-08T10:06:54;16.33;;;14.63;;
13979;SDS011;73871;49.900;8.594;2024-03-08T10:09:23;19.43;;;15.00;;
13979;SDS011;73871;49.900;8.594;2024-03-08T10:11:53;18.53;;;15.97;;
13979;SDS011;73871;49.900;8.594;2024-03-08T10:14:25;19.07;;;16.53;;
13979;SDS011;73871;49.900;8.594;2024-03-08T10:16:53;18.97;;;15.47;;
13979;SDS011;73871;49.900;8.594;2024-03-08T10:19:20;20.47;;;16.67;;
13979;SDS011;73871;49.900;8.594;2024-03-08T10:21:51;19.20;;;16.13;;
13979;SDS011;73871;49.900;8.594;2024-03-08T10:24:20;19.17;;;15.53;;
13979;SDS011;73871;49.900;8.594;2024-03-08T10:26:46;19.60;;;15.47;;
13979;SDS011;73871;49.900;8.594;2024-03-08T10:29:14;19.97;;;16.43;;
13979;SDS011;73871;49.900;8.594;2024-03-08T10:31:43;18.47;;;15.63;;
13979;SDS011;73871;49.900;8.594;2024-03-08T10:34:11;18.73;;;15.70;;
13979;SDS011;73871;49.900;8.594;2024-03-08T10:36:38;19.23;;;15.80;;
13979;SDS011;73871;49.900;8.594;2024-03-08T10:39:09;18.23;;;15.57;;
13979;SDS011;73871;49.900;8.594;2024-03-08T10:41:57;19.70;;;15.50;;
13979;SDS011;73871;49.900;8.594;2024-03-08T10:47:01;18.57;;;15.20;;
13979;SDS011;73871;49.900;8.594;2024-03-08T10:49:41;20.37;;;16.30;;
13979;SDS011;73871;49.900;8.594;2024-03-08T10:52:15;19.27;;;15.30;;
13979;SDS011;73871;49.900;8.594;2024-03-08T10:54:45;18.67;;;15.43;;
13979;SDS011;73871;49.900;8.594;2024-03-08T10:57:13;18.10;;;15.13;;
13979;SDS011;73871;49.900;8.594;2024-03-08T10:59:43;20.23;;;15.90;;
13979;SDS011;73871;49.900;8.594;2024-03-08T11:02:11;18.63;;;15.57;;
13979;SDS011;73871;49.900;8.594;2024-03-08T11:04:39;19.13;;;16.33;;
13979;SDS011;73871;49.900;8.594;2024-03-08T11:07:11;19.47;;;15.13;;
13979;SDS011;73871;49.900;8.594;2024-03-08T11:09:43;18.80;;;15.03;;
13979;SDS011;73871;49.900;8.594;2024-03-08T11:14:45;18.40;;;15.70;;
13979;SDS011;73871;49.900;8.594;2024-03-08T11:17:16;18.53;;;16.37;;
13979;SDS011;73871;49.900;8.594;2024-03-08T11:19:47;16.90;;;15.00;;
13979;SDS011;73871;49.900;8.594;2024-03-08T11:22:21;19.27;;;16.13;;
13979;SDS011;73871;49.900;8.594;2024-03-08T11:24:53;19.33;;;15.43;;
13979;SDS011;73871;49.900;8.594;2024-03-08T11:27:28;19.10;;;16.13;;
13979;SDS011;73871;49.900;8.594;2024-03-08T11:30:01;20.27;;;14.93;;
13979;SDS011;73871;49.900;8.594;2024-03-08T11:32:44;17.10;;;14.73;;
13979;SDS011;73871;49.900;8.594;2024-03-08T11:35:18;17.13;;;14.40;;
13979;SDS011;73871;49.900;8.594;2024-03-08T11:37:47;18.53;;;15.60;;
13979;SDS011;73871;49.900;8.594;2024-03-08T11:40:14;17.80;;;15.07;;
13979;SDS011;73871;49.900;8.594;2024-03-08T11:42:45;19.93;;;15.10;;
13979;SDS011;73871;49.900;8.594;2024-03-08T11:45:17;20.57;;;16.43;;
13979;SDS011;73871;49.900;8.594;2024-03-08T11:47:44;19.57;;;15.37;;
13979;SDS011;73871;49.900;8.594;2024-03-08T11:50:16;19.70;;;15.87;;
13979;SDS011;73871;49.900;8.594;2024-03-08T11:52:45;19.30;;;16.00;;
13979;SDS011;73871;49.900;8.594;2024-03-08T11:55:13;18.50;;;15.23;;
13979;SDS011;73871;49.900;8.594;2024-03-08T11:57:40;21.37;;;16.40;;
13979;SDS011;73871;49.900;8.594;2024-03-08T12:00:14;17.50;;;14.47;;
13979;SDS011;73871;49.900;8.594;2024-03-08T12:03:13;17.77;;;14.63;;
13979;SDS011;73871;49.900;8.594;2024-03-08T12:05:39;16.97;;;13.27;;
13979;SDS011;73871;49.900;8.594;2024-03-08T12:08:05;19.07;;;15.20;;
13979;SDS011;73871;49.900;8.594;2024-03-08T12:10:38;16.67;;;14.80;;
13979;SDS011;73871;49.900;8.594;2024-03-08T12:13:06;17.23;;;14.57;;
13979;SDS011;73871;49.900;8.594;2024-03-08T12:15:39;18.77;;;15.30;;
13979;SDS011;73871;49.900;8.594;2024-03-08T12:18:06;19.63;;;14.87;;
13979;SDS011;73871;49.900;8.594;2024-03-08T12:20:33;18.03;;;15.90;;
13979;SDS011;73871;49.900;8.594;2024-03-08T12:23:00;18.60;;;15.80;;
13979;SDS011;73871;49.900;8.594;2024-03-08T12:25:27;16.60;;;14.80;;
13979;SDS011;73871;49.900;8.594;2024-03-08T12:28:06;17.53;;;15.40;;
13979;SDS011;73871;49.900;8.594;2024-03-08T12:30:44;18.47;;;15.07;;
13979;SDS011;73871;49.900;8.594;2024-03-08T12:33:13;18.67;;;15.23;;
13979;SDS011;73871;49.900;8.594;2024-03-08T12:35:40;17.93;;;14.87;;
13979;SDS011;73871;49.900;8.594;2024-03-08T12:38:08;18.87;;;15.77;;
13979;SDS011;73871;49.900;8.594;2024-03-08T12:40:35;18.00;;;15.30;;
13979;SDS011;73871;49.900;8.594;2024-03-08T12:43:07;20.37;;;16.37;;
13979;SDS011;73871;49.900;8.594;2024-03-08T12:45:33;16.87;;;14.97;;
13979;SDS011;73871;49.900;8.594;2024-03-08T12:48:00;16.77;;;14.77;;
13979;SDS011;73871;49.900;8.594;2024-03-08T12:50:29;19.27;;;16.47;;
13979;SDS011;73871;49.900;8.594;2024-03-08T12:52:56;18.60;;;14.40;;
13979;SDS011;73871;49.900;8.594;2024-03-08T12:55:23;16.50;;;14.60;;
13979;SDS011;73871;49.900;8.594;2024-03-08T12:57:50;19.80;;;14.77;;
13979;SDS011;73871;49.900;8.594;2024-03-08T13:00:19;18.23;;;14.90;;
13979;SDS011;73871;49.900;8.594;2024-03-08T13:02:46;19.47;;;16.73;;
13979;SDS011;73871;49.900;8.594;2024-03-08T13:05:13;19.23;;;15.23;;
13979;SDS011;73871;49.900;8.594;2024-03-08T13:07:41;18.33;;;15.53;;
13979;SDS011;73871;49.900;8.594;2024-03-08T13:10:13;17.03;;;14.57;;
13979;SDS011;73871;49.900;8.594;2024-03-08T13:12:43;21.97;;;16.33;;
13979;SDS011;73871;49.900;8.594;2024-03-08T13:15:10;21.67;;;15.53;;
13979;SDS011;73871;49.900;8.594;2024-03-08T13:17:42;20.53;;;16.07;;
13979;SDS011;73871;49.900;8.594;2024-03-08T13:20:10;18.90;;;15.93;;
13979;SDS011;73871;49.900;8.594;2024-03-08T13:22:47;18.23;;;15.57;;
13979;SDS011;73871;49.900;8.594;2024-03-08T13:25:14;17.60;;;15.40;;
13979;SDS011;73871;49.900;8.594;2024-03-08T13:27:41;18.53;;;15.87;;
13979;SDS011;73871;49.900;8.594;2024-03-08T13:30:12;17.77;;;15.40;;
13979;SDS011;73871;49.900;8.594;2024-03-08T13:32:40;18.27;;;14.73;;
13979;SDS011;73871;49.900;8.594;2024-03-08T13:35:12;18.87;;;16.07;;
13979;SDS011;73871;49.900;8.594;2024-03-08T13:37:40;18.80;;;14.93;;
13979;SDS011;73871;49.900;8.594;2024-03-08T13:40:07;18.43;;;16.23;;
13979;SDS011;73871;49.900;8.594;2024-03-08T13:42:40;19.57;;;15.97;;
13979;SDS011;73871;49.900;8.594;2024-03-08T13:45:10;17.97;;;14.87;;
13979;SDS011;73871;49.900;8.594;2024-03-08T13:47:38;19.20;;;15.67;;
13979;SDS011;73871;49.900;8.594;2024-03-08T13:50:08;19.23;;;14.90;;
13979;SDS011;73871;49.900;8.594;2024-03-08T13:52:38;17.27;;;14.53;;
13979;SDS011;73871;49.900;8.594;2024-03-08T13:55:06;17.33;;;14.40;;
13979;SDS011;73871;49.900;8.594;2024-03-08T13:57:33;17.97;;;15.50;;
13979;SDS011;73871;49.900;8.594;2024-03-08T14:00:00;18.53;;;15.23;;
13979;SDS011;73871;49.900;8.594;2024-03-08T14:02:27;15.00;;;13.40;;
13979;SDS011;73871;49.900;8.594;2024-03-08T14:04:57;17.60;;;14.87;;
13979;SDS011;73871;49.900;8.594;2024-03-08T14:07:28;20.33;;;15.03;;
13979;SDS011;73871;49.900;8.594;2024-03-08T14:09:55;15.87;;;14.00;;
13979;SDS011;73871;49.900;8.594;2024-03-08T14:12:22;18.90;;;15.10;;
13979;SDS011;73871;49.900;8.594;2024-03-08T14:14:55;17.10;;;14.73;;
13979;SDS011;73871;49.900;8.594;2024-03-08T14:17:26;18.13;;;15.57;;
13979;SDS011;73871;49.900;8.594;2024-03-08T14:19:54;18.97;;;14.87;;
13979;SDS011;73871;49.900;8.594;2024-03-08T14:22:21;18.07;;;15.10;;
13979;SDS011;73871;49.900;8.594;2024-03-08T14:24:47;18.90;;;14.40;;
13979;SDS011;73871;49.900;8.594;2024-03-08T14:27:15;17.27;;;14.97;;
13979;SDS011;73871;49.900;8.594;2024-03-08T14:29:44;18.73;;;15.50;;
13979;SDS011;73871;49.900;8.594;2024-03-08T14:32:12;16.90;;;14.10;;
13979;SDS011;73871;49.900;8.594;2024-03-08T14:34:39;18.30;;;15.17;;